sensor_id;sensor_type;location;lat;lon;timestamp;P1;durP1;ratioP1;P2;durP2;ratioP2
6300;SDS011;3183;51.010;6.898;2022-10-16T00:00:37;4.37;;;2.67;;
6300;SDS011;3183;51.010;6.898;2022-10-16T00:03:05;4.30;;;2.90;;
6300;SDS011;3183;51.010;6.898;2022-10-16T00:05:32;5.27;;;2.33;;
6300;SDS011;3183;51.010;6.898;2022-10-16T00:08:01;4.53;;;2.63;;
6300;SDS011;3183;51.010;6.898;2022-10-16T00:10:28;7.07;;;2.37;;
6300;SDS011;3183;51.010;6.898;2022-10-16T00:12:55;4.20;;;2.40;;
6300;SDS011;3183;51.010;6.898;2022-10-16T00:15:22;5.40;;;2.57;;
6300;SDS011;3183;51.010;6.898;2022-10-16T00:17:49;2.70;;;2.13;;
6300;SDS011;3183;51.010;6.898;2022-10-16T00:20:17;2.60;;;1.90;;
6300;SDS011;3183;51.010;6.898;2022-10-16T00:22:44;2.80;;;2.23;;
6300;SDS011;3183;51.010;6.898;2022-10-16T00:25:12;4.10;;;2.10;;
6300;SDS011;3183;51.010;6.898;2022-10-16T00:27:39;3.83;;;2.00;;
6300;SDS011;3183;51.010;6.898;2022-10-16T00:30:07;4.00;;;2.00;;
6300;SDS011;3183;51.010;6.898;2022-10-16T00:32:34;4.23;;;2.10;;
6300;SDS011;3183;51.010;6.898;2022-10-16T00:35:01;2.63;;;1.80;;
6300;SDS011;3183;51.010;6.898;2022-10-16T00:37:29;6.90;;;2.50;;
6300;SDS011;3183;51.010;6.898;2022-10-16T00:39:56;3.90;;;2.50;;
6300;SDS011;3183;51.010;6.898;2022-10-16T00:42:24;5.60;;;2.23;;
6300;SDS011;3183;51.010;6.898;2022-10-16T00:44:53;8.03;;;1.87;;
6300;SDS011;3183;51.010;6.898;2022-10-16T00:47:22;2.20;;;1.70;;
6300;SDS011;3183;51.010;6.898;2022-10-16T00:49:51;2.00;;;1.53;;
6300;SDS011;3183;51.010;6.898;2022-10-16T00:52:20;3.37;;;1.90;;
6300;SDS011;3183;51.010;6.898;2022-10-16T00:54:47;2.30;;;1.90;;
6300;SDS011;3183;51.010;6.898;2022-10-16T00:57:16;2.97;;;2.00;;
6300;SDS011;3183;51.010;6.898;2022-10-16T00:59:44;3.50;;;1.73;;
6300;SDS011;3183;51.010;6.898;2022-10-16T01:02:12;5.97;;;2.40;;
6300;SDS011;3183;51.010;6.898;2022-10-16T01:04:40;7.20;;;2.10;;
6300;SDS011;3183;51.010;6.898;2022-10-16T01:07:10;4.40;;;2.20;;
6300;SDS011;3183;51.010;6.898;2022-10-16T01:09:42;7.00;;;2.10;;
6300;SDS011;3183;51.010;6.898;2022-10-16T01:12:14;6.40;;;2.53;;
6300;SDS011;3183;51.010;6.898;2022-10-16T01:14:45;2.57;;;2.37;;
6300;SDS011;3183;51.010;6.898;2022-10-16T01:17:16;2.10;;;1.90;;
6300;SDS011;3183;51.010;6.898;2022-10-16T01:19:50;5.43;;;2.33;;
6300;SDS011;3183;51.010;6.898;2022-10-16T01:22:23;4.00;;;2.50;;
6300;SDS011;3183;51.010;6.898;2022-10-16T01:24:52;4.90;;;2.63;;
6300;SDS011;3183;51.010;6.898;2022-10-16T01:27:23;6.30;;;3.33;;
6300;SDS011;3183;51.010;6.898;2022-10-16T01:29:53;3.60;;;2.80;;
6300;SDS011;3183;51.010;6.898;2022-10-16T01:32:24;3.80;;;3.10;;
6300;SDS011;3183;51.010;6.898;2022-10-16T01:34:56;8.70;;;3.20;;
6300;SDS011;3183;51.010;6.898;2022-10-16T01:37:29;2.57;;;2.30;;
6300;SDS011;3183;51.010;6.898;2022-10-16T01:39:58;2.50;;;2.30;;
6300;SDS011;3183;51.010;6.898;2022-10-16T01:42:28;5.13;;;2.70;;
6300;SDS011;3183;51.010;6.898;2022-10-16T01:44:57;3.30;;;2.13;;
6300;SDS011;3183;51.010;6.898;2022-10-16T01:47:25;7.43;;;3.00;;
6300;SDS011;3183;51.010;6.898;2022-10-16T01:49:53;7.27;;;2.63;;
6300;SDS011;3183;51.010;6.898;2022-10-16T01:52:23;2.87;;;2.30;;
6300;SDS011;3183;51.010;6.898;2022-10-16T01:54:52;4.33;;;2.60;;
6300;SDS011;3183;51.010;6.898;2022-10-16T01:57:20;2.30;;;2.10;;
6300;SDS011;3183;51.010;6.898;2022-10-16T01:59:50;7.23;;;2.10;;
6300;SDS011;3183;51.010;6.898;2022-10-16T02:02:19;2.60;;;2.40;;
6300;SDS011;3183;51.010;6.898;2022-10-16T02:04:47;2.77;;;2.20;;
6300;SDS011;3183;51.010;6.898;2022-10-16T02:07:15;2.50;;;2.30;;
6300;SDS011;3183;51.010;6.898;2022-10-16T02:09:43;3.40;;;2.60;;
6300;SDS011;3183;51.010;6.898;2022-10-16T02:12:12;2.13;;;1.90;;
6300;SDS011;3183;51.010;6.898;2022-10-16T02:14:40;4.60;;;2.43;;
6300;SDS011;3183;51.010;6.898;2022-10-16T02:17:12;2.30;;;1.93;;
6300;SDS011;3183;51.010;6.898;2022-10-16T02:19:40;2.67;;;1.73;;
6300;SDS011;3183;51.010;6.898;2022-10-16T02:22:08;2.40;;;2.20;;
6300;SDS011;3183;51.010;6.898;2022-10-16T02:24:38;1.60;;;1.50;;
6300;SDS011;3183;51.010;6.898;2022-10-16T02:27:06;2.53;;;1.70;;
6300;SDS011;3183;51.010;6.898;2022-10-16T02:29:38;1.93;;;1.73;;
6300;SDS011;3183;51.010;6.898;2022-10-16T02:32:06;3.20;;;2.10;;
6300;SDS011;3183;51.010;6.898;2022-10-16T02:34:36;1.90;;;1.80;;
6300;SDS011;3183;51.010;6.898;2022-10-16T02:37:04;3.33;;;1.93;;
6300;SDS011;3183;51.010;6.898;2022-10-16T02:39:32;1.87;;;1.70;;
6300;SDS011;3183;51.010;6.898;2022-10-16T02:41:59;3.33;;;1.83;;
6300;SDS011;3183;51.010;6.898;2022-10-16T02:44:26;1.60;;;1.50;;
6300;SDS011;3183;51.010;6.898;2022-10-16T02:46:54;1.50;;;1.40;;
6300;SDS011;3183;51.010;6.898;2022-10-16T02:49:22;2.87;;;1.80;;
6300;SDS011;3183;51.010;6.898;2022-10-16T02:51:50;3.47;;;2.00;;
6300;SDS011;3183;51.010;6.898;2022-10-16T02:54:17;3.87;;;1.93;;
6300;SDS011;3183;51.010;6.898;2022-10-16T02:56:44;3.43;;;1.60;;
6300;SDS011;3183;51.010;6.898;2022-10-16T02:59:11;5.73;;;1.63;;
6300;SDS011;3183;51.010;6.898;2022-10-16T03:01:39;1.63;;;1.53;;
6300;SDS011;3183;51.010;6.898;2022-10-16T03:04:06;1.70;;;1.60;;
6300;SDS011;3183;51.010;6.898;2022-10-16T03:06:33;4.40;;;1.47;;
6300;SDS011;3183;51.010;6.898;2022-10-16T03:09:02;1.87;;;1.53;;
6300;SDS011;3183;51.010;6.898;2022-10-16T03:11:29;1.93;;;1.70;;
6300;SDS011;3183;51.010;6.898;2022-10-16T03:13:56;1.60;;;1.37;;
6300;SDS011;3183;51.010;6.898;2022-10-16T03:16:23;2.20;;;1.57;;
6300;SDS011;3183;51.010;6.898;2022-10-16T03:18:50;2.37;;;1.17;;
6300;SDS011;3183;51.010;6.898;2022-10-16T03:21:18;2.07;;;1.30;;
6300;SDS011;3183;51.010;6.898;2022-10-16T03:23:45;1.60;;;1.30;;
6300;SDS011;3183;51.010;6.898;2022-10-16T03:26:14;1.83;;;1.60;;
6300;SDS011;3183;51.010;6.898;2022-10-16T03:28:41;2.10;;;1.43;;
6300;SDS011;3183;51.010;6.898;2022-10-16T03:31:08;3.63;;;1.57;;
6300;SDS011;3183;51.010;6.898;2022-10-16T03:33:35;1.43;;;1.33;;
6300;SDS011;3183;51.010;6.898;2022-10-16T03:36:02;2.63;;;1.40;;
6300;SDS011;3183;51.010;6.898;2022-10-16T03:38:29;3.73;;;1.20;;
6300;SDS011;3183;51.010;6.898;2022-10-16T03:40:56;3.80;;;1.63;;
6300;SDS011;3183;51.010;6.898;2022-10-16T03:43:25;1.83;;;1.40;;
6300;SDS011;3183;51.010;6.898;2022-10-16T03:45:52;4.40;;;1.40;;
6300;SDS011;3183;51.010;6.898;2022-10-16T03:48:19;1.50;;;1.33;;
6300;SDS011;3183;51.010;6.898;2022-10-16T03:50:46;2.13;;;1.53;;
6300;SDS011;3183;51.010;6.898;2022-10-16T03:53:15;2.13;;;1.43;;
6300;SDS011;3183;51.010;6.898;2022-10-16T03:55:42;1.53;;;1.20;;
6300;SDS011;3183;51.010;6.898;2022-10-16T03:58:10;2.03;;;1.23;;
6300;SDS011;3183;51.010;6.898;2022-10-16T04:00:41;2.80;;;2.30;;
6300;SDS011;3183;51.010;6.898;2022-10-16T04:03:08;3.77;;;1.40;;
6300;SDS011;3183;51.010;6.898;2022-10-16T04:05:35;2.33;;;1.27;;
6300;SDS011;3183;51.010;6.898;2022-10-16T04:08:02;2.50;;;1.10;;
6300;SDS011;3183;51.010;6.898;2022-10-16T04:10:30;2.37;;;1.40;;
6300;SDS011;3183;51.010;6.898;2022-10-16T04:12:57;1.90;;;1.17;;
6300;SDS011;3183;51.010;6.898;2022-10-16T04:15:24;4.30;;;1.50;;
6300;SDS011;3183;51.010;6.898;2022-10-16T04:17:53;2.00;;;1.30;;
6300;SDS011;3183;51.010;6.898;2022-10-16T04:20:20;1.40;;;1.30;;
6300;SDS011;3183;51.010;6.898;2022-10-16T04:22:47;1.20;;;1.10;;
6300;SDS011;3183;51.010;6.898;2022-10-16T04:25:14;1.57;;;1.00;;
6300;SDS011;3183;51.010;6.898;2022-10-16T04:27:41;3.43;;;1.30;;
6300;SDS011;3183;51.010;6.898;2022-10-16T04:30:09;1.73;;;1.13;;
6300;SDS011;3183;51.010;6.898;2022-10-16T04:32:36;3.53;;;1.63;;
6300;SDS011;3183;51.010;6.898;2022-10-16T04:35:06;1.63;;;1.47;;
6300;SDS011;3183;51.010;6.898;2022-10-16T04:37:34;2.60;;;1.30;;
6300;SDS011;3183;51.010;6.898;2022-10-16T04:40:01;7.20;;;1.90;;
6300;SDS011;3183;51.010;6.898;2022-10-16T04:42:28;1.50;;;1.30;;
6300;SDS011;3183;51.010;6.898;2022-10-16T04:44:55;6.10;;;1.37;;
6300;SDS011;3183;51.010;6.898;2022-10-16T04:47:22;2.40;;;1.30;;
6300;SDS011;3183;51.010;6.898;2022-10-16T04:49:50;2.50;;;1.23;;
6300;SDS011;3183;51.010;6.898;2022-10-16T04:52:18;2.00;;;1.23;;
6300;SDS011;3183;51.010;6.898;2022-10-16T04:54:46;2.90;;;1.20;;
6300;SDS011;3183;51.010;6.898;2022-10-16T04:57:15;2.60;;;1.60;;
6300;SDS011;3183;51.010;6.898;2022-10-16T04:59:42;2.40;;;1.43;;
6300;SDS011;3183;51.010;6.898;2022-10-16T05:02:09;3.10;;;1.30;;
6300;SDS011;3183;51.010;6.898;2022-10-16T05:04:36;1.27;;;1.13;;
6300;SDS011;3183;51.010;6.898;2022-10-16T05:07:03;1.57;;;1.40;;
6300;SDS011;3183;51.010;6.898;2022-10-16T05:09:32;1.70;;;1.50;;
6300;SDS011;3183;51.010;6.898;2022-10-16T05:11:59;2.10;;;1.37;;
6300;SDS011;3183;51.010;6.898;2022-10-16T05:14:28;4.10;;;1.50;;
6300;SDS011;3183;51.010;6.898;2022-10-16T05:16:55;1.57;;;1.20;;
6300;SDS011;3183;51.010;6.898;2022-10-16T05:19:23;1.43;;;1.30;;
6300;SDS011;3183;51.010;6.898;2022-10-16T05:21:50;4.30;;;1.33;;
6300;SDS011;3183;51.010;6.898;2022-10-16T05:24:17;1.90;;;1.43;;
6300;SDS011;3183;51.010;6.898;2022-10-16T05:26:45;1.67;;;1.40;;
6300;SDS011;3183;51.010;6.898;2022-10-16T05:29:12;7.10;;;1.20;;
6300;SDS011;3183;51.010;6.898;2022-10-16T05:31:40;1.43;;;1.30;;
6300;SDS011;3183;51.010;6.898;2022-10-16T05:34:07;3.17;;;1.10;;
6300;SDS011;3183;51.010;6.898;2022-10-16T05:36:34;2.07;;;1.80;;
6300;SDS011;3183;51.010;6.898;2022-10-16T05:39:01;3.13;;;1.13;;
6300;SDS011;3183;51.010;6.898;2022-10-16T05:41:28;1.27;;;1.17;;
6300;SDS011;3183;51.010;6.898;2022-10-16T05:43:57;6.80;;;1.60;;
6300;SDS011;3183;51.010;6.898;2022-10-16T05:46:24;2.13;;;1.43;;
6300;SDS011;3183;51.010;6.898;2022-10-16T05:48:52;1.67;;;1.50;;
6300;SDS011;3183;51.010;6.898;2022-10-16T05:51:19;5.03;;;1.63;;
6300;SDS011;3183;51.010;6.898;2022-10-16T05:53:46;1.60;;;1.50;;
6300;SDS011;3183;51.010;6.898;2022-10-16T05:56:13;1.90;;;1.60;;
6300;SDS011;3183;51.010;6.898;2022-10-16T05:58:40;1.60;;;1.50;;
6300;SDS011;3183;51.010;6.898;2022-10-16T06:01:11;2.10;;;1.70;;
6300;SDS011;3183;51.010;6.898;2022-10-16T06:03:38;1.87;;;1.70;;
6300;SDS011;3183;51.010;6.898;2022-10-16T06:06:09;2.13;;;1.80;;
6300;SDS011;3183;51.010;6.898;2022-10-16T06:08:36;1.87;;;1.40;;
6300;SDS011;3183;51.010;6.898;2022-10-16T06:11:04;7.03;;;1.77;;
6300;SDS011;3183;51.010;6.898;2022-10-16T06:13:31;2.80;;;1.93;;
6300;SDS011;3183;51.010;6.898;2022-10-16T06:15:59;5.23;;;1.50;;
6300;SDS011;3183;51.010;6.898;2022-10-16T06:18:28;3.40;;;1.77;;
6300;SDS011;3183;51.010;6.898;2022-10-16T06:20:55;4.00;;;1.47;;
6300;SDS011;3183;51.010;6.898;2022-10-16T06:23:22;3.13;;;2.37;;
6300;SDS011;3183;51.010;6.898;2022-10-16T06:25:50;2.33;;;1.90;;
6300;SDS011;3183;51.010;6.898;2022-10-16T06:28:17;3.20;;;2.00;;
6300;SDS011;3183;51.010;6.898;2022-10-16T06:30:44;3.73;;;1.80;;
6300;SDS011;3183;51.010;6.898;2022-10-16T06:33:11;6.40;;;2.03;;
6300;SDS011;3183;51.010;6.898;2022-10-16T06:35:40;3.23;;;1.63;;
6300;SDS011;3183;51.010;6.898;2022-10-16T06:38:07;3.70;;;1.97;;
6300;SDS011;3183;51.010;6.898;2022-10-16T06:40:34;1.90;;;1.80;;
6300;SDS011;3183;51.010;6.898;2022-10-16T06:43:01;5.07;;;2.17;;
6300;SDS011;3183;51.010;6.898;2022-10-16T06:45:28;3.33;;;1.90;;
6300;SDS011;3183;51.010;6.898;2022-10-16T06:47:56;2.00;;;1.80;;
6300;SDS011;3183;51.010;6.898;2022-10-16T06:50:23;3.43;;;1.70;;
6300;SDS011;3183;51.010;6.898;2022-10-16T06:52:51;3.23;;;1.80;;
6300;SDS011;3183;51.010;6.898;2022-10-16T06:55:18;2.60;;;1.80;;
6300;SDS011;3183;51.010;6.898;2022-10-16T06:57:46;1.60;;;1.50;;
6300;SDS011;3183;51.010;6.898;2022-10-16T07:00:13;5.63;;;1.93;;
6300;SDS011;3183;51.010;6.898;2022-10-16T07:02:41;2.07;;;1.60;;
6300;SDS011;3183;51.010;6.898;2022-10-16T07:05:08;2.70;;;1.67;;
6300;SDS011;3183;51.010;6.898;2022-10-16T07:07:35;3.70;;;1.67;;
6300;SDS011;3183;51.010;6.898;2022-10-16T07:10:04;5.43;;;1.67;;
6300;SDS011;3183;51.010;6.898;2022-10-16T07:12:31;11.20;;;1.80;;
6300;SDS011;3183;51.010;6.898;2022-10-16T07:14:58;3.80;;;2.07;;
6300;SDS011;3183;51.010;6.898;2022-10-16T07:17:25;1.73;;;1.50;;
6300;SDS011;3183;51.010;6.898;2022-10-16T07:19:52;1.47;;;1.37;;
6300;SDS011;3183;51.010;6.898;2022-10-16T07:22:20;4.13;;;2.07;;
6300;SDS011;3183;51.010;6.898;2022-10-16T07:24:47;1.63;;;1.13;;
6300;SDS011;3183;51.010;6.898;2022-10-16T07:27:18;2.90;;;1.30;;
6300;SDS011;3183;51.010;6.898;2022-10-16T07:29:47;2.50;;;1.60;;
6300;SDS011;3183;51.010;6.898;2022-10-16T07:32:14;3.00;;;1.70;;
6300;SDS011;3183;51.010;6.898;2022-10-16T07:34:41;6.03;;;1.40;;
6300;SDS011;3183;51.010;6.898;2022-10-16T07:37:09;2.93;;;1.40;;
6300;SDS011;3183;51.010;6.898;2022-10-16T07:39:36;3.73;;;1.50;;
6300;SDS011;3183;51.010;6.898;2022-10-16T07:42:03;1.90;;;1.47;;
6300;SDS011;3183;51.010;6.898;2022-10-16T07:44:32;2.43;;;1.20;;
6300;SDS011;3183;51.010;6.898;2022-10-16T07:46:59;4.37;;;1.70;;
6300;SDS011;3183;51.010;6.898;2022-10-16T07:49:26;1.60;;;1.40;;
6300;SDS011;3183;51.010;6.898;2022-10-16T07:51:54;2.73;;;1.33;;
6300;SDS011;3183;51.010;6.898;2022-10-16T07:54:21;2.40;;;1.40;;
6300;SDS011;3183;51.010;6.898;2022-10-16T07:56:48;3.03;;;1.47;;
6300;SDS011;3183;51.010;6.898;2022-10-16T07:59:15;2.33;;;1.20;;
6300;SDS011;3183;51.010;6.898;2022-10-16T08:01:43;3.97;;;1.33;;
6300;SDS011;3183;51.010;6.898;2022-10-16T08:04:10;2.50;;;1.23;;
6300;SDS011;3183;51.010;6.898;2022-10-16T08:06:38;4.93;;;1.10;;
6300;SDS011;3183;51.010;6.898;2022-10-16T08:09:06;4.50;;;1.20;;
6300;SDS011;3183;51.010;6.898;2022-10-16T08:11:34;2.33;;;0.93;;
6300;SDS011;3183;51.010;6.898;2022-10-16T08:14:01;3.03;;;0.90;;
6300;SDS011;3183;51.010;6.898;2022-10-16T08:16:28;2.33;;;1.07;;
6300;SDS011;3183;51.010;6.898;2022-10-16T08:18:56;1.20;;;1.10;;
6300;SDS011;3183;51.010;6.898;2022-10-16T08:21:24;1.30;;;0.80;;
6300;SDS011;3183;51.010;6.898;2022-10-16T08:23:52;1.17;;;0.90;;
6300;SDS011;3183;51.010;6.898;2022-10-16T08:26:20;2.17;;;1.00;;
6300;SDS011;3183;51.010;6.898;2022-10-16T08:28:49;2.60;;;1.10;;
6300;SDS011;3183;51.010;6.898;2022-10-16T08:31:17;0.97;;;0.70;;
6300;SDS011;3183;51.010;6.898;2022-10-16T08:33:54;2.30;;;0.80;;
6300;SDS011;3183;51.010;6.898;2022-10-16T08:36:23;4.10;;;1.13;;
6300;SDS011;3183;51.010;6.898;2022-10-16T08:38:50;3.00;;;1.00;;
6300;SDS011;3183;51.010;6.898;2022-10-16T08:41:29;4.70;;;0.90;;
6300;SDS011;3183;51.010;6.898;2022-10-16T08:44:04;0.90;;;0.57;;
6300;SDS011;3183;51.010;6.898;2022-10-16T08:46:38;1.00;;;0.60;;
6300;SDS011;3183;51.010;6.898;2022-10-16T08:49:07;1.57;;;0.80;;
6300;SDS011;3183;51.010;6.898;2022-10-16T08:51:39;1.60;;;1.00;;
6300;SDS011;3183;51.010;6.898;2022-10-16T08:54:08;2.80;;;1.03;;
6300;SDS011;3183;51.010;6.898;2022-10-16T08:56:38;1.20;;;0.90;;
6300;SDS011;3183;51.010;6.898;2022-10-16T08:59:06;1.53;;;1.00;;
6300;SDS011;3183;51.010;6.898;2022-10-16T09:01:37;1.10;;;0.77;;
6300;SDS011;3183;51.010;6.898;2022-10-16T09:04:13;3.13;;;0.83;;
6300;SDS011;3183;51.010;6.898;2022-10-16T09:06:47;1.47;;;0.70;;
6300;SDS011;3183;51.010;6.898;2022-10-16T09:09:24;1.00;;;0.80;;
6300;SDS011;3183;51.010;6.898;2022-10-16T09:11:59;2.10;;;1.10;;
6300;SDS011;3183;51.010;6.898;2022-10-16T09:17:17;1.73;;;0.80;;
6300;SDS011;3183;51.010;6.898;2022-10-16T09:19:46;3.00;;;0.90;;
6300;SDS011;3183;51.010;6.898;2022-10-16T09:22:18;1.33;;;0.73;;
6300;SDS011;3183;51.010;6.898;2022-10-16T09:24:48;0.80;;;0.70;;
6300;SDS011;3183;51.010;6.898;2022-10-16T09:27:15;0.87;;;0.70;;
6300;SDS011;3183;51.010;6.898;2022-10-16T09:29:43;12.60;;;0.90;;
6300;SDS011;3183;51.010;6.898;2022-10-16T09:32:10;2.70;;;0.83;;
6300;SDS011;3183;51.010;6.898;2022-10-16T09:34:39;1.30;;;0.70;;
6300;SDS011;3183;51.010;6.898;2022-10-16T09:37:09;1.20;;;0.70;;
6300;SDS011;3183;51.010;6.898;2022-10-16T09:39:47;1.27;;;0.57;;
6300;SDS011;3183;51.010;6.898;2022-10-16T09:42:15;4.53;;;1.53;;
6300;SDS011;3183;51.010;6.898;2022-10-16T09:44:46;0.80;;;0.50;;
6300;SDS011;3183;51.010;6.898;2022-10-16T09:47:15;2.00;;;0.60;;
6300;SDS011;3183;51.010;6.898;2022-10-16T09:49:50;1.83;;;0.70;;
6300;SDS011;3183;51.010;6.898;2022-10-16T09:52:18;3.77;;;1.17;;
6300;SDS011;3183;51.010;6.898;2022-10-16T09:54:50;1.10;;;0.97;;
6300;SDS011;3183;51.010;6.898;2022-10-16T09:57:17;6.17;;;0.87;;
6300;SDS011;3183;51.010;6.898;2022-10-16T09:59:46;3.50;;;0.90;;
6300;SDS011;3183;51.010;6.898;2022-10-16T10:02:14;1.00;;;0.60;;
6300;SDS011;3183;51.010;6.898;2022-10-16T10:04:44;5.13;;;0.90;;
6300;SDS011;3183;51.010;6.898;2022-10-16T10:07:16;1.60;;;0.67;;
6300;SDS011;3183;51.010;6.898;2022-10-16T10:09:44;2.13;;;0.67;;
6300;SDS011;3183;51.010;6.898;2022-10-16T10:12:20;2.13;;;0.80;;
6300;SDS011;3183;51.010;6.898;2022-10-16T10:14:48;1.40;;;0.70;;
6300;SDS011;3183;51.010;6.898;2022-10-16T10:17:17;1.20;;;0.50;;
6300;SDS011;3183;51.010;6.898;2022-10-16T10:19:46;1.83;;;1.03;;
6300;SDS011;3183;51.010;6.898;2022-10-16T10:22:23;2.70;;;0.87;;
6300;SDS011;3183;51.010;6.898;2022-10-16T10:24:55;1.20;;;0.70;;
6300;SDS011;3183;51.010;6.898;2022-10-16T10:27:25;3.63;;;0.83;;
6300;SDS011;3183;51.010;6.898;2022-10-16T10:29:53;2.17;;;0.77;;
6300;SDS011;3183;51.010;6.898;2022-10-16T10:32:27;5.90;;;1.23;;
6300;SDS011;3183;51.010;6.898;2022-10-16T10:35:02;3.10;;;0.83;;
6300;SDS011;3183;51.010;6.898;2022-10-16T10:37:40;2.40;;;1.07;;
6300;SDS011;3183;51.010;6.898;2022-10-16T10:40:12;4.70;;;1.47;;
6300;SDS011;3183;51.010;6.898;2022-10-16T10:42:44;2.30;;;0.73;;
6300;SDS011;3183;51.010;6.898;2022-10-16T10:45:17;5.13;;;0.80;;
6300;SDS011;3183;51.010;6.898;2022-10-16T10:47:47;1.33;;;0.60;;
6300;SDS011;3183;51.010;6.898;2022-10-16T10:50:18;4.60;;;0.87;;
6300;SDS011;3183;51.010;6.898;2022-10-16T10:52:51;8.30;;;1.03;;
6300;SDS011;3183;51.010;6.898;2022-10-16T10:55:21;0.87;;;0.53;;
6300;SDS011;3183;51.010;6.898;2022-10-16T10:57:56;1.53;;;0.70;;
6300;SDS011;3183;51.010;6.898;2022-10-16T11:00:28;6.30;;;1.20;;
6300;SDS011;3183;51.010;6.898;2022-10-16T11:02:58;4.00;;;0.60;;
6300;SDS011;3183;51.010;6.898;2022-10-16T11:05:31;2.87;;;0.60;;
6300;SDS011;3183;51.010;6.898;2022-10-16T11:08:02;1.80;;;0.70;;
6300;SDS011;3183;51.010;6.898;2022-10-16T11:10:35;3.83;;;0.77;;
6300;SDS011;3183;51.010;6.898;2022-10-16T11:13:10;6.40;;;1.03;;
6300;SDS011;3183;51.010;6.898;2022-10-16T11:15:42;4.27;;;0.73;;
6300;SDS011;3183;51.010;6.898;2022-10-16T11:18:11;1.83;;;0.77;;
6300;SDS011;3183;51.010;6.898;2022-10-16T11:20:42;2.47;;;0.87;;
6300;SDS011;3183;51.010;6.898;2022-10-16T11:23:14;1.43;;;0.57;;
6300;SDS011;3183;51.010;6.898;2022-10-16T11:25:43;1.50;;;0.90;;
6300;SDS011;3183;51.010;6.898;2022-10-16T11:28:13;7.73;;;0.77;;
6300;SDS011;3183;51.010;6.898;2022-10-16T11:30:42;3.57;;;0.50;;
6300;SDS011;3183;51.010;6.898;2022-10-16T11:33:20;1.07;;;0.60;;
6300;SDS011;3183;51.010;6.898;2022-10-16T11:35:51;3.23;;;0.80;;
6300;SDS011;3183;51.010;6.898;2022-10-16T11:38:21;4.10;;;0.80;;
6300;SDS011;3183;51.010;6.898;2022-10-16T11:40:53;4.23;;;0.93;;
6300;SDS011;3183;51.010;6.898;2022-10-16T11:43:26;5.03;;;0.70;;
6300;SDS011;3183;51.010;6.898;2022-10-16T11:45:55;1.30;;;0.70;;
6300;SDS011;3183;51.010;6.898;2022-10-16T11:48:25;1.87;;;1.10;;
6300;SDS011;3183;51.010;6.898;2022-10-16T11:50:56;2.17;;;0.80;;
6300;SDS011;3183;51.010;6.898;2022-10-16T11:53:26;1.70;;;0.60;;
6300;SDS011;3183;51.010;6.898;2022-10-16T11:55:58;2.13;;;0.80;;
6300;SDS011;3183;51.010;6.898;2022-10-16T11:58:27;2.07;;;0.77;;
6300;SDS011;3183;51.010;6.898;2022-10-16T12:00:58;1.27;;;0.50;;
6300;SDS011;3183;51.010;6.898;2022-10-16T12:03:27;4.20;;;1.10;;
6300;SDS011;3183;51.010;6.898;2022-10-16T12:05:58;1.73;;;0.57;;
6300;SDS011;3183;51.010;6.898;2022-10-16T12:08:29;2.20;;;0.80;;
6300;SDS011;3183;51.010;6.898;2022-10-16T12:11:05;2.40;;;0.90;;
6300;SDS011;3183;51.010;6.898;2022-10-16T12:13:35;4.50;;;0.93;;
6300;SDS011;3183;51.010;6.898;2022-10-16T12:16:06;2.20;;;1.00;;
6300;SDS011;3183;51.010;6.898;2022-10-16T12:18:33;2.20;;;0.70;;
6300;SDS011;3183;51.010;6.898;2022-10-16T12:21:00;3.63;;;0.70;;
6300;SDS011;3183;51.010;6.898;2022-10-16T12:23:31;2.93;;;0.53;;
6300;SDS011;3183;51.010;6.898;2022-10-16T12:25:59;3.07;;;0.80;;
6300;SDS011;3183;51.010;6.898;2022-10-16T12:28:28;2.50;;;0.70;;
6300;SDS011;3183;51.010;6.898;2022-10-16T12:30:58;4.10;;;0.70;;
6300;SDS011;3183;51.010;6.898;2022-10-16T12:33:26;5.23;;;0.80;;
6300;SDS011;3183;51.010;6.898;2022-10-16T12:35:54;1.90;;;0.70;;
6300;SDS011;3183;51.010;6.898;2022-10-16T12:38:24;3.27;;;0.80;;
6300;SDS011;3183;51.010;6.898;2022-10-16T12:40:56;7.80;;;0.80;;
6300;SDS011;3183;51.010;6.898;2022-10-16T12:43:25;4.03;;;0.70;;
6300;SDS011;3183;51.010;6.898;2022-10-16T12:46:01;5.57;;;0.70;;
6300;SDS011;3183;51.010;6.898;2022-10-16T12:48:29;6.77;;;1.53;;
6300;SDS011;3183;51.010;6.898;2022-10-16T12:50:56;3.13;;;0.70;;
6300;SDS011;3183;51.010;6.898;2022-10-16T12:53:24;2.60;;;0.70;;
6300;SDS011;3183;51.010;6.898;2022-10-16T12:55:58;6.40;;;0.80;;
6300;SDS011;3183;51.010;6.898;2022-10-16T12:58:36;1.50;;;0.53;;
6300;SDS011;3183;51.010;6.898;2022-10-16T13:01:10;6.23;;;0.80;;
6300;SDS011;3183;51.010;6.898;2022-10-16T13:03:51;1.00;;;0.50;;
6300;SDS011;3183;51.010;6.898;2022-10-16T13:06:25;3.33;;;0.70;;
6300;SDS011;3183;51.010;6.898;2022-10-16T13:09:02;2.23;;;0.57;;
6300;SDS011;3183;51.010;6.898;2022-10-16T13:11:35;0.80;;;0.50;;
6300;SDS011;3183;51.010;6.898;2022-10-16T13:14:14;2.10;;;0.60;;
6300;SDS011;3183;51.010;6.898;2022-10-16T13:16:48;1.63;;;0.70;;
6300;SDS011;3183;51.010;6.898;2022-10-16T13:19:18;1.93;;;0.83;;
6300;SDS011;3183;51.010;6.898;2022-10-16T13:21:51;3.37;;;0.90;;
6300;SDS011;3183;51.010;6.898;2022-10-16T13:24:25;3.60;;;0.70;;
6300;SDS011;3183;51.010;6.898;2022-10-16T13:26:55;5.13;;;0.90;;
6300;SDS011;3183;51.010;6.898;2022-10-16T13:29:23;3.40;;;0.80;;
6300;SDS011;3183;51.010;6.898;2022-10-16T13:31:57;0.80;;;0.60;;
6300;SDS011;3183;51.010;6.898;2022-10-16T13:34:25;5.80;;;0.63;;
6300;SDS011;3183;51.010;6.898;2022-10-16T13:36:52;1.43;;;0.70;;
6300;SDS011;3183;51.010;6.898;2022-10-16T13:39:23;2.80;;;0.80;;
6300;SDS011;3183;51.010;6.898;2022-10-16T13:41:58;3.77;;;0.70;;
6300;SDS011;3183;51.010;6.898;2022-10-16T13:44:25;1.40;;;0.50;;
6300;SDS011;3183;51.010;6.898;2022-10-16T13:46:59;3.90;;;0.80;;
6300;SDS011;3183;51.010;6.898;2022-10-16T13:49:26;0.90;;;0.50;;
6300;SDS011;3183;51.010;6.898;2022-10-16T13:51:54;2.90;;;0.80;;
6300;SDS011;3183;51.010;6.898;2022-10-16T13:54:21;3.40;;;0.90;;
6300;SDS011;3183;51.010;6.898;2022-10-16T13:56:48;2.57;;;0.70;;
6300;SDS011;3183;51.010;6.898;2022-10-16T13:59:22;2.80;;;0.80;;
6300;SDS011;3183;51.010;6.898;2022-10-16T14:01:51;1.90;;;0.77;;
6300;SDS011;3183;51.010;6.898;2022-10-16T14:04:20;1.67;;;0.60;;
6300;SDS011;3183;51.010;6.898;2022-10-16T14:06:49;2.97;;;0.67;;
6300;SDS011;3183;51.010;6.898;2022-10-16T14:09:19;1.07;;;0.70;;
6300;SDS011;3183;51.010;6.898;2022-10-16T14:11:48;1.10;;;0.50;;
6300;SDS011;3183;51.010;6.898;2022-10-16T14:14:16;1.73;;;1.10;;
6300;SDS011;3183;51.010;6.898;2022-10-16T14:16:43;2.17;;;0.50;;
6300;SDS011;3183;51.010;6.898;2022-10-16T14:19:13;1.17;;;0.70;;
6300;SDS011;3183;51.010;6.898;2022-10-16T14:21:43;2.50;;;0.60;;
6300;SDS011;3183;51.010;6.898;2022-10-16T14:24:10;1.83;;;0.70;;
6300;SDS011;3183;51.010;6.898;2022-10-16T14:26:41;2.00;;;0.77;;
6300;SDS011;3183;51.010;6.898;2022-10-16T14:29:11;1.70;;;0.83;;
6300;SDS011;3183;51.010;6.898;2022-10-16T14:31:39;1.10;;;0.80;;
6300;SDS011;3183;51.010;6.898;2022-10-16T14:36:50;4.60;;;0.80;;
6300;SDS011;3183;51.010;6.898;2022-10-16T14:39:19;1.73;;;0.80;;
6300;SDS011;3183;51.010;6.898;2022-10-16T14:41:48;2.20;;;0.93;;
6300;SDS011;3183;51.010;6.898;2022-10-16T14:44:17;1.23;;;0.70;;
6300;SDS011;3183;51.010;6.898;2022-10-16T14:46:44;1.77;;;1.07;;
6300;SDS011;3183;51.010;6.898;2022-10-16T14:49:15;5.23;;;1.10;;
6300;SDS011;3183;51.010;6.898;2022-10-16T14:51:43;1.30;;;0.80;;
6300;SDS011;3183;51.010;6.898;2022-10-16T14:54:12;1.10;;;0.70;;
6300;SDS011;3183;51.010;6.898;2022-10-16T14:56:43;2.27;;;0.77;;
6300;SDS011;3183;51.010;6.898;2022-10-16T14:59:13;3.03;;;0.80;;
6300;SDS011;3183;51.010;6.898;2022-10-16T15:01:42;1.00;;;0.73;;
6300;SDS011;3183;51.010;6.898;2022-10-16T15:04:09;2.67;;;0.80;;
6300;SDS011;3183;51.010;6.898;2022-10-16T15:06:38;4.30;;;0.90;;
6300;SDS011;3183;51.010;6.898;2022-10-16T15:09:05;2.00;;;0.97;;
6300;SDS011;3183;51.010;6.898;2022-10-16T15:11:34;2.27;;;1.30;;
6300;SDS011;3183;51.010;6.898;2022-10-16T15:14:01;1.57;;;1.10;;
6300;SDS011;3183;51.010;6.898;2022-10-16T15:16:29;2.03;;;0.90;;
6300;SDS011;3183;51.010;6.898;2022-10-16T15:18:57;1.30;;;1.00;;
6300;SDS011;3183;51.010;6.898;2022-10-16T15:21:24;1.30;;;1.10;;
6300;SDS011;3183;51.010;6.898;2022-10-16T15:23:52;2.67;;;1.40;;
6300;SDS011;3183;51.010;6.898;2022-10-16T15:26:19;1.30;;;1.00;;
6300;SDS011;3183;51.010;6.898;2022-10-16T15:28:48;1.87;;;0.93;;
6300;SDS011;3183;51.010;6.898;2022-10-16T15:31:15;1.87;;;1.20;;